Time;durP1;ratioP1;P1;durP2;ratioP2;P2;SDS_P1;SDS_P2;PMS_P1;PMS_P2;Temp;Humidity;BMP_temperature;BMP_pressure;BME280_temperature;BME280_humidity;BME280_pressure;Samples;Min_cycle;Max_cycle;Signal;HPM_P1;HPM_P2
2023/03/17 00:00:49;;;;;;;4.67;2.30;;;4.10;99.90;;;4.78;100.00;97762.72;5021437;28;20543;-76
2023/03/17 00:03:25;;;;;;;3.57;2.30;;;4.10;99.90;;;4.77;100.00;97761.06;5024408;28;20527;-76
2023/03/17 00:05:57;;;;;;;2.10;1.90;;;4.00;99.90;;;4.72;100.00;97769.31;5027662;28;20591;-76
2023/03/17 00:08:29;;;;;;;5.07;2.50;;;4.00;99.90;;;4.69;100.00;97759.25;5022235;28;20522;-77
2023/03/17 00:10:59;;;;;;;4.37;2.47;;;4.00;99.90;;;4.71;100.00;97753.94;5023351;28;20469;-76
2023/03/17 00:13:30;;;;;;;4.80;2.83;;;4.00;99.90;;;4.70;100.00;97758.31;5020827;28;20632;-76
2023/03/17 00:16:02;;;;;;;2.73;2.17;;;3.90;99.90;;;4.68;100.00;97747.31;5020385;28;20472;-76
2023/03/17 00:18:34;;;;;;;6.20;2.50;;;3.90;99.90;;;4.68;100.00;97751.66;5021426;28;20475;-76
2023/03/17 00:21:04;;;;;;;4.60;2.20;;;4.00;99.90;;;4.70;100.00;97755.72;5023085;28;20468;-76
2023/03/17 00:23:35;;;;;;;2.87;2.20;;;3.90;99.90;;;4.69;100.00;97759.25;5022051;28;21062;-76
2023/03/17 00:26:06;;;;;;;1.93;1.83;;;4.00;99.90;;;4.65;100.00;97757.16;5022091;28;20467;-76
2023/03/17 00:28:35;;;;;;;3.90;2.57;;;4.00;99.90;;;4.64;100.00;97761.53;5022449;28;20457;-76
2023/03/17 00:31:16;;;;;;;2.87;2.20;;;4.00;99.90;;;4.61;100.00;97750.69;5019820;28;20555;-76
2023/03/17 00:33:49;;;;;;;4.50;2.27;;;4.00;99.90;;;4.59;100.00;97748.22;5020863;28;20866;-76
2023/03/17 00:36:22;;;;;;;2.77;1.97;;;4.00;99.90;;;4.58;100.00;97737.06;5018682;28;21046;-76
2023/03/17 00:38:52;;;;;;;2.30;2.10;;;3.90;99.90;;;4.58;100.00;97749.22;5021718;28;20807;-76
2023/03/17 00:41:22;;;;;;;3.03;2.10;;;3.90;99.90;;;4.57;100.00;97755.34;5020476;28;20482;-76
2023/03/17 00:43:52;;;;;;;3.23;1.60;;;3.90;99.90;;;4.55;100.00;97752.91;5022945;28;20987;-76
2023/03/17 00:46:34;;;;;;;2.67;1.87;;;4.00;99.90;;;4.51;100.00;97746.41;5023530;28;20607;-76
2023/03/17 00:49:15;;;;;;;3.37;2.03;;;3.90;99.90;;;4.43;100.00;97735.25;5021127;28;20479;-76
2023/03/17 00:51:49;;;;;;;5.17;1.83;;;3.90;99.90;;;4.43;100.00;97732.66;5017990;28;20469;-76
2023/03/17 00:54:20;;;;;;;2.87;2.07;;;3.80;99.90;;;4.43;100.00;97727.47;5019603;28;20502;-77
2023/03/17 00:56:52;;;;;;;2.67;2.00;;;3.80;99.90;;;4.46;100.00;97722.78;5019007;28;20551;-76
2023/03/17 00:59:29;;;;;;;2.13;1.70;;;3.80;99.90;;;4.43;100.00;97717.13;5018940;28;20543;-77
2023/03/17 01:01:58;;;;;;;2.83;1.90;;;3.80;99.90;;;4.43;100.00;97715.34;5017236;28;20481;-76
2023/03/17 01:04:30;;;;;;;5.10;2.10;;;3.80;99.90;;;4.45;100.00;97718.56;5017271;28;21205;-77
2023/03/17 01:07:00;;;;;;;2.13;1.70;;;3.70;99.90;;;4.44;100.00;97718.75;5018602;28;20486;-77
2023/03/17 01:09:30;;;;;;;3.80;2.10;;;3.80;99.90;;;4.37;100.00;97710.78;5019964;28;20524;-76
2023/03/17 01:12:00;;;;;;;3.47;2.07;;;3.80;99.90;;;4.31;100.00;97721.75;5018924;28;20463;-76
2023/03/17 01:14:29;;;;;;;3.97;2.30;;;3.70;99.90;;;4.33;100.00;97725.03;5018813;28;20524;-76
2023/03/17 01:16:58;;;;;;;4.70;2.30;;;3.70;99.90;;;4.36;100.00;97736.81;5019084;28;20489;-76
2023/03/17 01:19:29;;;;;;;4.43;2.13;;;3.60;99.90;;;4.36;100.00;97731.66;5023858;28;20461;-76
2023/03/17 01:21:59;;;;;;;2.03;1.80;;;3.70;99.90;;;4.33;100.00;97722.44;5019778;28;20466;-76
2023/03/17 01:24:28;;;;;;;4.37;1.80;;;3.70;99.90;;;4.35;100.00;97728.25;5018442;28;21107;-76
2023/03/17 01:26:59;;;;;;;8.80;2.00;;;3.60;99.90;;;4.33;100.00;97727.59;5020458;28;20454;-76
2023/03/17 01:29:29;;;;;;;2.63;1.83;;;3.60;99.90;;;4.33;100.00;97721.63;5014733;28;20460;-76
2023/03/17 01:31:59;;;;;;;4.57;1.87;;;3.70;99.90;;;4.29;100.00;97715.94;5018237;28;20480;-76
2023/03/17 01:34:29;;;;;;;3.53;1.90;;;3.60;99.90;;;4.29;100.00;97731.47;5016978;28;20494;-76
2023/03/17 01:36:59;;;;;;;3.37;1.80;;;3.60;99.90;;;4.28;100.00;97718.66;5017148;28;20505;-76
2023/03/17 01:39:28;;;;;;;2.20;2.00;;;3.60;99.90;;;4.27;100.00;97712.69;5016661;28;20555;-76
2023/03/17 01:42:00;;;;;;;4.13;1.80;;;3.60;99.90;;;4.28;100.00;97709.13;5017618;28;20502;-77
2023/03/17 01:44:30;;;;;;;1.90;1.67;;;3.60;99.90;;;4.27;100.00;97691.97;5017649;28;20538;-76
2023/03/17 01:47:01;;;;;;;2.20;1.93;;;3.50;99.90;;;4.28;100.00;97687.63;5017449;28;20466;-76
2023/03/17 01:49:37;;;;;;;3.77;1.77;;;3.50;99.90;;;4.27;100.00;97683.44;5017259;28;20467;-76
2023/03/17 01:52:11;;;;;;;2.30;2.10;;;3.50;99.90;;;4.20;100.00;97680.63;5018055;28;20553;-76
2023/03/17 01:54:49;;;;;;;2.60;2.00;;;3.50;99.90;;;4.18;100.00;97692.91;5017934;28;20497;-76
2023/03/17 01:57:25;;;;;;;5.07;1.83;;;3.40;99.90;;;4.13;100.00;97700.31;5019418;28;20458;-76
2023/03/17 02:00:00;;;;;;;2.27;1.80;;;3.50;99.90;;;4.04;100.00;97703.84;5018051;28;20499;-76
2023/03/17 02:02:35;;;;;;;2.60;2.23;;;3.40;99.90;;;4.01;100.00;97701.56;5020248;28;20455;-76
2023/03/17 02:05:13;;;;;;;3.00;1.70;;;3.40;99.90;;;4.02;100.00;97704.03;5016184;28;20991;-76
2023/03/17 02:07:43;;;;;;;1.80;1.57;;;3.30;99.90;;;4.01;100.00;97694.63;5016294;28;20549;-77
2023/03/17 02:10:18;;;;;;;2.03;1.80;;;3.30;99.90;;;4.02;100.00;97692.88;5014826;28;20465;-76
2023/03/17 02:12:54;;;;;;;2.90;1.70;;;3.20;99.90;;;3.97;100.00;97685.56;5017756;28;21196;-76
2023/03/17 02:15:24;;;;;;;6.80;1.87;;;3.30;99.90;;;3.94;100.00;97687.63;5015026;28;21079;-76
2023/03/17 02:17:54;;;;;;;4.23;1.60;;;3.30;99.90;;;3.94;100.00;97688.47;5016899;28;21162;-76
2023/03/17 02:21:31;;;;;;;3.10;1.80;;;3.20;99.90;;;3.93;100.00;97680.84;5019381;28;20467;-76
2023/03/17 02:24:06;;;;;;;1.97;1.73;;;3.30;99.90;;;3.91;100.00;97678.44;5018129;28;20494;-76
2023/03/17 02:26:37;;;;;;;3.63;2.00;;;3.20;99.90;;;3.85;100.00;97668.66;5018760;28;20556;-76
2023/03/17 02:29:07;;;;;;;1.63;1.50;;;3.20;99.90;;;3.83;100.00;97680.13;5016029;28;21004;-76
2023/03/17 02:31:36;;;;;;;2.23;1.77;;;3.20;99.90;;;3.79;100.00;97676.25;5017604;28;20904;-76
2023/03/17 02:34:07;;;;;;;3.20;2.20;;;3.20;99.90;;;3.77;100.00;97678.19;5018409;28;20555;-76
2023/03/17 02:36:39;;;;;;;5.73;1.90;;;3.20;99.90;;;3.79;100.00;97684.00;5016944;28;20537;-76
2023/03/17 02:39:09;;;;;;;2.03;1.60;;;3.20;99.90;;;3.78;100.00;97683.22;5016407;28;20472;-76
2023/03/17 02:41:39;;;;;;;3.53;1.77;;;3.10;99.90;;;3.80;100.00;97683.84;5015929;28;20520;-76
2023/03/17 02:44:08;;;;;;;2.13;1.93;;;3.10;99.90;;;3.80;100.00;97676.09;5015508;28;20476;-76
2023/03/17 02:46:37;;;;;;;2.67;2.23;;;3.10;99.90;;;3.80;100.00;97673.50;5014993;28;21004;-77
2023/03/17 02:49:08;;;;;;;2.30;1.87;;;3.10;99.90;;;3.78;100.00;97677.22;5016266;28;20992;-76
2023/03/17 02:51:38;;;;;;;2.13;1.93;;;3.10;99.90;;;3.76;100.00;97676.56;5015814;28;20504;-76
2023/03/17 02:54:09;;;;;;;2.73;1.97;;;3.00;99.90;;;3.72;100.00;97672.66;5014155;28;20522;-76
2023/03/17 02:56:39;;;;;;;1.60;1.50;;;3.00;99.90;;;3.69;100.00;97670.38;5016246;28;20542;-76
2023/03/17 02:59:09;;;;;;;3.20;1.87;;;3.00;99.90;;;3.68;100.00;97655.84;5016931;28;20507;-76
2023/03/17 03:01:40;;;;;;;2.47;1.70;;;3.00;99.90;;;3.66;100.00;97660.34;5017184;28;20809;-76
2023/03/17 03:04:10;;;;;;;4.53;1.87;;;3.00;99.90;;;3.64;100.00;97664.88;5016819;28;20470;-76
2023/03/17 03:06:43;;;;;;;2.40;1.80;;;2.90;99.90;;;3.62;100.00;97652.06;5016843;28;20532;-76
2023/03/17 03:09:16;;;;;;;2.07;1.80;;;2.90;99.90;;;3.58;100.00;97657.69;5018448;28;20461;-77
2023/03/17 03:11:46;;;;;;;2.90;1.90;;;2.90;99.90;;;3.54;100.00;97652.84;5018622;28;20469;-76
2023/03/17 03:14:16;;;;;;;3.63;2.00;;;2.80;99.90;;;3.51;100.00;97653.16;5020294;28;21015;-76
2023/03/17 03:16:47;;;;;;;3.00;1.97;;;2.80;99.90;;;3.43;100.00;97658.28;5017105;28;20471;-76
2023/03/17 03:19:16;;;;;;;3.90;2.00;;;2.90;99.90;;;3.40;100.00;97650.81;5016011;28;20975;-76
2023/03/17 03:21:48;;;;;;;2.30;1.70;;;2.80;99.90;;;3.41;100.00;97664.53;5016534;28;20555;-76
2023/03/17 03:24:19;;;;;;;3.30;2.00;;;2.80;99.90;;;3.43;100.00;97678.97;5018911;28;20496;-76
2023/03/17 03:26:48;;;;;;;9.10;1.70;;;2.70;99.90;;;3.36;100.00;97680.53;5017346;28;20878;-76
2023/03/17 03:29:18;;;;;;;2.10;1.63;;;2.70;99.90;;;3.35;100.00;97678.88;5017373;28;20901;-77
2023/03/17 03:31:48;;;;;;;3.97;1.73;;;2.70;99.90;;;3.32;100.00;97684.38;5016147;28;20465;-76
2023/03/17 03:34:17;;;;;;;3.37;2.13;;;2.70;99.90;;;3.29;100.00;97681.28;5013830;28;20490;-76
2023/03/17 03:36:48;;;;;;;3.20;1.73;;;2.70;99.90;;;3.29;100.00;97669.16;5014577;28;20916;-76
2023/03/17 03:39:19;;;;;;;5.47;2.27;;;2.60;99.90;;;3.26;100.00;97666.06;5016535;28;21090;-76
2023/03/17 03:41:50;;;;;;;3.00;1.90;;;2.60;99.90;;;3.24;100.00;97668.78;5017183;28;20988;-77
2023/03/17 03:44:19;;;;;;;2.70;1.77;;;2.60;99.90;;;3.17;100.00;97664.38;5016363;28;20969;-76
2023/03/17 03:46:48;;;;;;;2.10;1.70;;;2.50;99.90;;;3.16;100.00;97657.59;5013917;28;21013;-76
2023/03/17 03:49:18;;;;;;;3.17;2.23;;;2.50;99.90;;;3.19;100.00;97663.28;5014864;28;20557;-76
2023/03/17 03:51:49;;;;;;;2.23;1.90;;;2.50;99.90;;;3.18;100.00;97668.59;5019002;28;20468;-76
2023/03/17 03:54:19;;;;;;;3.33;2.07;;;2.50;99.90;;;3.12;100.00;97670.00;5015533;28;20512;-76
2023/03/17 03:56:49;;;;;;;8.57;2.00;;;2.50;99.90;;;3.08;100.00;97668.69;5014792;28;20472;-76
2023/03/17 03:59:18;;;;;;;1.63;1.53;;;2.50;99.90;;;3.03;100.00;97665.72;5016502;28;20468;-76
2023/03/17 04:01:48;;;;;;;3.73;2.20;;;2.50;99.90;;;3.03;100.00;97681.22;5015123;28;20462;-76
2023/03/17 04:04:18;;;;;;;3.03;2.10;;;2.40;99.90;;;3.04;100.00;97680.25;5016351;28;20977;-76
2023/03/17 04:06:49;;;;;;;3.03;1.83;;;2.40;99.90;;;3.01;100.00;97675.41;5013696;28;20480;-76
2023/03/17 04:09:21;;;;;;;3.03;2.10;;;2.40;99.90;;;3.02;100.00;97674.41;5014962;28;20494;-76
2023/03/17 04:11:51;;;;;;;3.97;1.63;;;2.40;99.90;;;3.00;100.00;97673.78;5014659;28;20505;-76
2023/03/17 04:14:20;;;;;;;1.77;1.63;;;2.40;99.90;;;2.99;100.00;97669.56;5014696;28;20536;-76
2023/03/17 04:16:50;;;;;;;4.50;2.03;;;2.30;99.90;;;3.00;100.00;97674.59;5018393;28;20476;-77
2023/03/17 04:19:20;;;;;;;3.10;1.97;;;2.30;99.90;;;3.00;100.00;97684.91;5016540;28;20476;-76
2023/03/17 04:21:50;;;;;;;1.77;1.67;;;2.20;99.90;;;3.00;100.00;97678.94;5017648;28;20473;-77
2023/03/17 04:24:22;;;;;;;2.40;1.73;;;2.30;99.90;;;2.99;100.00;97670.38;5015474;28;20923;-76
2023/03/17 04:26:52;;;;;;;2.93;2.00;;;2.20;99.90;;;2.99;100.00;97672.13;5014865;28;21306;-76
2023/03/17 04:29:21;;;;;;;1.70;1.60;;;2.20;99.90;;;2.98;100.00;97665.38;5019324;28;20464;-76
2023/03/17 04:31:50;;;;;;;3.20;2.03;;;2.30;99.90;;;2.94;100.00;97659.69;5020976;28;20567;-77
2023/03/17 04:34:20;;;;;;;2.40;2.00;;;2.30;99.90;;;2.94;100.00;97666.63;5020953;28;20461;-77
2023/03/17 04:36:52;;;;;;;2.50;2.00;;;2.20;99.90;;;2.88;100.00;97675.75;5019521;28;20481;-77
2023/03/17 04:39:22;;;;;;;2.10;1.90;;;2.30;99.90;;;2.86;100.00;97676.88;5021832;28;20475;-77
2023/03/17 04:41:53;;;;;;;2.70;2.03;;;2.30;99.90;;;2.83;100.00;97677.16;5018965;28;20873;-77
2023/03/17 04:44:23;;;;;;;4.87;2.00;;;2.20;99.90;;;2.84;100.00;97678.81;5020863;28;21008;-76
2023/03/17 04:46:54;;;;;;;3.23;1.80;;;2.10;99.90;;;2.84;100.00;97681.38;5020839;28;20537;-77
2023/03/17 04:49:25;;;;;;;2.23;1.87;;;2.10;99.90;;;2.84;100.00;97694.28;5019486;28;20493;-77
2023/03/17 04:51:57;;;;;;;5.47;2.33;;;2.20;99.90;;;2.82;100.00;97680.69;5021008;28;20524;-77
2023/03/17 04:54:27;;;;;;;2.80;1.93;;;2.10;99.90;;;2.82;100.00;97678.13;5020811;28;20465;-77
2023/03/17 04:56:57;;;;;;;3.97;2.13;;;2.10;99.90;;;2.84;100.00;97678.81;5020709;28;20493;-77
2023/03/17 04:59:27;;;;;;;2.73;2.43;;;2.10;99.90;;;2.79;100.00;97676.66;5022257;28;20466;-77
2023/03/17 05:01:56;;;;;;;2.77;2.30;;;2.10;99.90;;;2.81;100.00;97673.94;5019332;28;20522;-77
2023/03/17 05:04:26;;;;;;;3.37;2.10;;;2.10;99.90;;;2.80;100.00;97667.16;5018902;28;20480;-74
2023/03/17 05:07:02;;;;;;;5.87;2.50;;;2.10;99.90;;;2.77;100.00;97670.03;5017938;28;21055;-76
2023/03/17 05:09:32;;;;;;;3.10;2.17;;;2.10;99.90;;;2.79;100.00;97673.25;5018248;28;20463;-76
2023/03/17 05:12:03;;;;;;;3.53;2.07;;;2.10;99.90;;;2.76;100.00;97665.81;5020290;28;20526;-76
2023/03/17 05:14:32;;;;;;;7.30;1.87;;;2.10;99.90;;;2.77;100.00;97670.03;5021570;28;20490;-76
2023/03/17 05:17:03;;;;;;;2.40;2.00;;;2.10;99.90;;;2.71;100.00;97673.19;5019259;28;20556;-76
2023/03/17 05:19:32;;;;;;;5.80;2.07;;;2.10;99.90;;;2.67;100.00;97666.69;5020067;28;21484;-76
2023/03/17 05:22:03;;;;;;;3.57;2.60;;;2.10;99.90;;;2.66;100.00;97659.91;5017404;28;20470;-77
2023/03/17 05:24:33;;;;;;;3.43;2.53;;;2.20;99.90;;;2.68;100.00;97663.16;5017291;28;21110;-76
2023/03/17 05:27:04;;;;;;;5.57;2.90;;;2.00;99.90;;;2.71;100.00;97652.56;5016100;28;20554;-76
2023/03/17 05:29:33;;;;;;;5.00;2.70;;;2.10;99.90;;;2.71;100.00;97662.88;5018754;28;20486;-77
2023/03/17 05:32:03;;;;;;;2.83;2.20;;;2.00;99.90;;;2.69;100.00;97660.44;5017465;28;20474;-76
2023/03/17 05:34:33;;;;;;;4.90;2.67;;;2.10;99.90;;;2.70;100.00;97661.25;5017907;28;20470;-76
2023/03/17 05:37:03;;;;;;;2.70;2.40;;;2.00;99.90;;;2.70;100.00;97661.25;5017793;28;21009;-76
2023/03/17 05:39:32;;;;;;;3.55;2.50;;;2.00;99.90;;;2.70;100.00;97669.00;5017119;28;20932;-77
2023/03/17 05:42:02;;;;;;;11.13;2.30;;;2.00;99.90;;;2.68;100.00;97673.47;5021825;28;20251;-76
2023/03/17 05:44:32;;;;;;;2.20;2.00;;;2.10;99.90;;;2.64;100.00;97675.53;5023691;28;20469;-76
2023/03/17 05:47:02;;;;;;;4.57;2.53;;;2.00;99.90;;;2.59;100.00;97672.59;5028052;28;20467;-76
2023/03/17 05:49:33;;;;;;;2.00;1.80;;;2.00;99.90;;;2.59;100.00;97674.34;5024487;28;20470;-76
2023/03/17 05:52:04;;;;;;;2.30;2.10;;;2.10;99.90;;;2.60;100.00;97670.81;5025471;28;20471;-76
2023/03/17 05:54:35;;;;;;;2.73;2.20;;;2.00;99.90;;;2.57;100.00;97674.50;5025029;28;20905;-76
2023/03/17 05:57:06;;;;;;;4.90;2.57;;;2.00;99.90;;;2.57;100.00;97673.72;5025434;28;20499;-76
2023/03/17 05:59:36;;;;;;;4.70;2.30;;;1.90;99.90;;;2.59;100.00;97676.94;5022084;28;20466;-76
2023/03/17 06:02:07;;;;;;;3.27;2.13;;;2.00;99.90;;;2.62;100.00;97674.06;5022043;28;20472;-76
2023/03/17 06:04:37;;;;;;;5.00;2.30;;;2.00;99.90;;;2.66;100.00;97675.41;5019166;28;20469;-76
2023/03/17 06:07:09;;;;;;;2.30;1.80;;;2.00;99.90;;;2.67;100.00;97677.03;5019905;28;20488;-76
2023/03/17 06:09:38;;;;;;;6.40;2.83;;;2.00;99.90;;;2.71;100.00;97683.53;5021844;28;20555;-76
2023/03/17 06:12:10;;;;;;;2.20;2.00;;;2.00;99.90;;;2.73;100.00;97671.28;5020874;28;20522;-76
2023/03/17 06:14:40;;;;;;;2.60;2.07;;;2.00;99.90;;;2.76;100.00;97681.31;5025453;28;20456;-76
2023/03/17 06:17:11;;;;;;;5.20;3.23;;;2.10;99.90;;;2.78;100.00;97677.59;5026345;28;20526;-77
2023/03/17 06:19:41;;;;;;;3.33;2.30;;;2.10;99.90;;;2.79;100.00;97673.25;5025432;28;20531;-76
2023/03/17 06:22:12;;;;;;;3.27;2.67;;;2.10;99.90;;;2.82;100.00;97681.50;5023220;28;21409;-76
2023/03/17 06:24:42;;;;;;;3.37;2.27;;;2.10;99.90;;;2.84;100.00;97668.47;5021271;28;21274;-76
2023/03/17 06:27:15;;;;;;;2.53;2.23;;;2.10;99.90;;;2.83;100.00;97677.97;5019829;28;20465;-76
2023/03/17 06:29:46;;;;;;;3.67;2.37;;;2.20;99.90;;;2.85;100.00;97676.06;5020045;28;21147;-76
2023/03/17 06:32:15;;;;;;;5.97;2.90;;;2.20;99.90;;;2.87;100.00;97679.31;5018260;28;20897;-76
2023/03/17 06:34:48;;;;;;;4.13;3.00;;;2.20;99.90;;;2.90;100.00;97678.19;5024204;28;20460;-76
2023/03/17 06:37:20;;;;;;;7.10;3.17;;;2.30;99.90;;;2.95;100.00;97676.78;5026444;28;21096;-76
2023/03/17 06:39:50;;;;;;;2.70;2.37;;;2.30;99.90;;;2.98;100.00;97673.94;5020412;28;20550;-76
2023/03/17 06:42:21;;;;;;;3.13;2.80;;;2.30;99.90;;;3.03;100.00;97688.97;5017895;28;20477;-76
2023/03/17 06:44:51;;;;;;;4.20;3.23;;;2.40;99.90;;;3.08;100.00;97681.59;5017889;28;20477;-76
2023/03/17 06:47:21;;;;;;;10.73;3.20;;;2.40;99.90;;;3.12;100.00;97682.91;5020453;28;20846;-76
2023/03/17 06:49:53;;;;;;;4.37;3.70;;;2.40;99.90;;;3.17;100.00;97682.44;5020640;28;20945;-76
2023/03/17 06:52:25;;;;;;;6.30;2.73;;;2.60;99.90;;;3.20;100.00;97688.13;5018612;28;20521;-76
2023/03/17 06:54:55;;;;;;;5.00;3.00;;;2.50;99.90;;;3.22;100.00;97677.66;5020458;28;20498;-76
2023/03/17 06:57:25;;;;;;;6.53;3.40;;;2.50;99.90;;;3.23;100.00;97677.50;5021218;28;20884;-76
2023/03/17 06:59:55;;;;;;;4.87;3.17;;;2.50;99.90;;;3.27;100.00;97668.50;5021407;28;20470;-76
2023/03/17 07:02:25;;;;;;;6.97;3.07;;;2.50;99.90;;;3.30;100.00;97672.53;5024040;28;20467;-76
2023/03/17 07:04:56;;;;;;;3.40;2.97;;;2.60;99.90;;;3.34;100.00;97672.09;5023906;28;20955;-76
2023/03/17 07:07:28;;;;;;;8.00;3.20;;;2.60;99.90;;;3.37;100.00;97679.53;5021098;28;20493;-76
2023/03/17 07:09:59;;;;;;;2.80;2.57;;;2.70;99.90;;;3.40;100.00;97676.66;5019669;28;20480;-76
2023/03/17 07:12:29;;;;;;;7.07;3.77;;;2.70;99.90;;;3.44;100.00;97675.38;5019613;28;20554;-76
2023/03/17 07:14:58;;;;;;;6.37;3.00;;;2.70;99.90;;;3.46;100.00;97670.91;5021339;28;20968;-76
2023/03/17 07:17:28;;;;;;;11.97;4.00;;;2.80;99.90;;;3.50;100.00;97672.22;5024404;28;20513;-76
2023/03/17 07:20:00;;;;;;;4.63;3.23;;;2.80;99.90;;;3.54;100.00;97676.09;5025451;28;20470;-76
2023/03/17 07:22:31;;;;;;;6.40;4.20;;;2.80;99.90;;;3.56;100.00;97670.78;5024688;28;20979;-76
2023/03/17 07:25:01;;;;;;;3.33;2.80;;;2.90;99.90;;;3.58;100.00;97666.25;5020207;28;20830;-76
2023/03/17 07:27:31;;;;;;;7.43;3.70;;;2.90;99.90;;;3.60;100.00;97671.28;5020016;28;20458;-76
2023/03/17 07:30:03;;;;;;;3.97;3.60;;;2.90;99.90;;;3.64;100.00;97668.25;5019780;28;20496;-76
2023/03/17 07:32:35;;;;;;;12.70;4.10;;;2.90;99.90;;;3.67;100.00;97677.47;5019406;28;20543;-76
2023/03/17 07:35:06;;;;;;;5.90;3.30;;;2.90;99.90;;;3.72;100.00;97672.66;5019648;28;20994;-76
2023/03/17 07:37:38;;;;;;;3.23;2.73;;;3.00;99.90;;;3.76;100.00;97672.19;5019821;28;20500;-76
2023/03/17 07:40:11;;;;;;;3.10;2.80;;;3.00;99.90;;;3.80;100.00;97676.09;5018986;28;21137;-76
2023/03/17 07:42:42;;;;;;;3.73;3.20;;;3.10;99.90;;;3.82;100.00;97673.34;5024484;28;20461;-76
2023/03/17 07:45:12;;;;;;;5.30;3.27;;;3.10;99.90;;;3.87;100.00;97679.69;5019410;28;20475;-76
2023/03/17 07:47:42;;;;;;;15.53;4.10;;;3.20;99.90;;;3.92;100.00;97679.25;5020348;28;20535;-76
2023/03/17 07:50:14;;;;;;;13.83;3.93;;;3.30;99.90;;;3.97;100.00;97674.41;5017967;28;20468;-76
2023/03/17 07:52:46;;;;;;;10.77;6.00;;;3.30;99.90;;;4.01;100.00;97692.03;5020461;28;20836;-76
2023/03/17 07:55:16;;;;;;;12.63;6.80;;;3.40;99.90;;;4.07;100.00;97695.78;5019075;28;20456;-76
2023/03/17 07:57:45;;;;;;;8.83;5.43;;;3.50;99.90;;;4.09;100.00;97693.88;5019703;28;20526;-76
2023/03/17 08:00:16;;;;;;;7.20;4.50;;;3.50;99.90;;;4.15;100.00;97688.06;5020871;28;20813;-76
2023/03/17 08:02:47;;;;;;;7.73;4.90;;;3.50;99.90;;;4.22;100.00;97688.25;5030884;28;20495;-76
2023/03/17 08:05:36;;;;;;;10.53;6.27;;;3.70;99.90;;;4.28;100.00;97678.09;5031053;28;20967;-76
2023/03/17 08:08:09;;;;;;;10.40;5.70;;;3.70;99.90;;;4.36;100.00;97685.88;5031898;28;20480;-76
2023/03/17 08:10:39;;;;;;;10.43;6.10;;;3.80;99.90;;;4.41;100.00;97693.16;5024886;28;20547;-76
2023/03/17 08:13:08;;;;;;;13.73;6.80;;;3.90;99.90;;;4.45;100.00;97679.75;5027855;28;20522;-76
2023/03/17 08:15:38;;;;;;;7.13;5.00;;;3.90;99.90;;;4.52;100.00;97675.56;5028926;28;20474;-76
2023/03/17 08:18:08;;;;;;;9.20;5.70;;;3.90;99.90;;;4.57;100.00;97670.72;5023264;28;20495;-75
2023/03/17 08:20:39;;;;;;;9.00;5.40;;;4.00;99.90;;;4.64;100.00;97677.84;5029108;28;20815;-76
2023/03/17 08:23:10;;;;;;;14.17;5.93;;;4.00;99.90;;;4.71;100.00;97668.50;5026341;28;20548;-76
2023/03/17 08:25:39;;;;;;;11.20;5.90;;;4.10;99.90;;;4.76;100.00;97666.22;5022662;28;20751;-76
2023/03/17 08:28:09;;;;;;;14.73;6.43;;;4.20;99.90;;;4.82;100.00;97655.25;5020804;28;20468;-76
2023/03/17 08:30:41;;;;;;;12.50;6.70;;;4.20;99.90;;;4.88;100.00;97650.22;5022854;28;20862;-76
2023/03/17 08:33:12;;;;;;;14.20;7.60;;;4.30;99.90;;;4.94;100.00;97648.75;5023070;28;20903;-76
2023/03/17 08:35:42;;;;;;;23.63;9.73;;;4.30;99.90;;;5.01;100.00;97647.94;5022147;28;20549;-75
2023/03/17 08:38:13;;;;;;;14.50;7.80;;;4.40;99.90;;;5.06;100.00;97637.94;5022390;28;20490;-76
2023/03/17 08:40:44;;;;;;;13.03;6.33;;;4.50;99.90;;;5.11;100.00;97640.00;5022592;28;20881;-75
2023/03/17 08:43:15;;;;;;;9.70;4.90;;;4.60;99.90;;;5.17;100.00;97631.59;5023302;28;20474;-75
2023/03/17 08:45:46;;;;;;;8.67;5.47;;;4.60;99.90;;;5.21;100.00;97629.47;5022455;28;20473;-76
2023/03/17 08:48:18;;;;;;;9.37;5.30;;;4.70;99.90;;;5.26;100.00;97630.63;5023471;28;21035;-76
2023/03/17 08:50:49;;;;;;;5.80;4.80;;;4.70;99.90;;;5.31;100.00;97615.38;5024696;28;20463;-76
2023/03/17 08:53:20;;;;;;;12.43;5.07;;;4.80;99.90;;;5.36;100.00;97615.69;5023322;28;21067;-76
2023/03/17 08:55:50;;;;;;;6.60;4.60;;;4.90;99.90;;;5.40;100.00;97614.41;5025316;28;20972;-76
2023/03/17 08:58:20;;;;;;;8.00;4.80;;;4.90;99.90;;;5.46;100.00;97611.13;5027542;28;20505;-76
2023/03/17 09:00:51;;;;;;;10.90;5.40;;;5.00;99.90;;;5.50;100.00;97609.84;5030643;28;20968;-76
2023/03/17 09:03:21;;;;;;;9.90;4.47;;;5.00;99.90;;;5.54;100.00;97608.53;5022375;28;20818;-76
2023/03/17 09:05:52;;;;;;;12.37;5.13;;;5.00;99.90;;;5.59;100.00;97619.19;5022565;28;20469;-76
2023/03/17 09:08:25;;;;;;;9.50;4.63;;;5.10;99.90;;;5.68;100.00;97616.59;5021274;28;20490;-76
2023/03/17 09:10:54;;;;;;;10.30;6.00;;;5.20;99.90;;;5.71;100.00;97605.88;5019579;28;20516;-76
2023/03/17 09:13:24;;;;;;;4.53;3.70;;;5.10;99.90;;;5.77;100.00;97610.38;5021560;28;20498;-76
2023/03/17 09:15:54;;;;;;;20.33;5.30;;;5.20;99.90;;;5.83;100.00;97615.72;5021408;28;20474;-76
2023/03/17 09:18:25;;;;;;;9.00;4.60;;;5.20;99.90;;;5.90;100.00;97610.72;5022330;28;20482;-76
2023/03/17 09:20:55;;;;;;;5.93;3.97;;;5.30;99.90;;;5.95;100.00;97616.19;5021208;28;20505;-77
2023/03/17 09:23:26;;;;;;;8.53;3.97;;;5.40;99.90;;;6.01;100.00;97621.53;5022048;28;20829;-76
2023/03/17 09:25:56;;;;;;;8.70;4.50;;;5.50;99.90;;;6.07;100.00;97607.84;5020633;28;20477;-76
2023/03/17 09:28:26;;;;;;;6.47;3.70;;;5.60;99.90;;;6.12;100.00;97615.16;5021054;28;20469;-76
2023/03/17 09:31:00;;;;;;;7.83;4.00;;;5.70;99.90;;;6.17;100.00;97612.88;5021563;28;20467;-76
2023/03/17 09:33:30;;;;;;;8.00;4.00;;;5.80;99.90;;;6.23;100.00;97613.97;5021502;28;20475;-76
2023/03/17 09:36:01;;;;;;;5.40;3.40;;;5.80;99.90;;;6.27;100.00;97612.66;5021852;28;20462;-76
2023/03/17 09:38:32;;;;;;;5.60;3.30;;;5.90;99.90;;;6.33;100.00;97617.97;5028328;28;20528;-76
2023/03/17 09:41:30;;;;;;;5.63;3.13;;;5.90;99.90;;;6.39;100.00;97614.66;5028906;28;20469;-77
2023/03/17 09:44:16;;;;;;;6.30;3.50;;;6.00;99.90;;;6.48;100.00;97608.47;5020812;28;20533;-76
2023/03/17 09:47:01;;;;;;;4.97;3.53;;;6.10;99.90;;;6.54;100.00;97612.16;5021267;28;20881;-76
2023/03/17 09:49:43;;;;;;;6.67;4.10;;;6.20;99.90;;;6.61;100.00;97596.69;5020281;28;20492;-76
2023/03/17 09:52:17;;;;;;;14.20;4.20;;;6.20;99.90;;;6.66;100.00;97602.19;5021368;28;20458;-76
2023/03/17 09:54:50;;;;;;;10.23;4.17;;;6.20;99.90;;;6.74;100.00;97607.31;5020245;28;20894;-76
2023/03/17 09:57:30;;;;;;;5.20;3.43;;;6.40;99.90;;;6.79;100.00;97605.00;5021544;28;20534;-76
2023/03/17 10:00:06;;;;;;;5.87;3.43;;;6.40;99.90;;;6.86;100.00;97613.72;5021621;28;20469;-76
2023/03/17 10:02:38;;;;;;;7.90;4.20;;;6.40;99.90;;;6.91;100.00;97617.41;5020200;28;20486;-76
2023/03/17 10:05:19;;;;;;;6.90;3.80;;;6.40;99.90;;;6.99;100.00;97599.16;5019962;28;21026;-76
2023/03/17 10:08:00;;;;;;;7.27;3.30;;;6.50;99.90;;;7.07;100.00;97606.88;5020019;28;20556;-76
2023/03/17 10:10:42;;;;;;;6.33;3.70;;;6.60;99.90;;;7.15;100.00;97592.97;5021328;28;20454;-76
2023/03/17 10:13:28;;;;;;;4.07;2.80;;;6.70;99.90;;;7.21;100.00;97587.09;5019234;28;20462;-76
2023/03/17 10:16:08;;;;;;;9.53;3.43;;;6.80;99.90;;;7.27;100.00;97586.38;5020318;28;20995;-76
2023/03/17 10:18:49;;;;;;;4.90;3.10;;;6.90;99.90;;;7.34;100.00;97592.50;5024281;28;20497;-76
2023/03/17 10:21:25;;;;;;;6.90;3.00;;;7.00;99.90;;;7.42;100.00;97594.22;5025244;28;20576;-76
2023/03/17 10:23:58;;;;;;;6.60;3.47;;;7.00;99.90;;;7.48;100.00;97583.91;5026304;28;20505;-76
2023/03/17 10:26:38;;;;;;;5.57;2.90;;;7.10;99.90;;;7.57;100.00;97588.03;5027622;28;20459;-76
2023/03/17 10:29:16;;;;;;;5.33;2.93;;;7.10;99.90;;;7.67;100.00;97579.16;5029125;28;20473;-76
2023/03/17 10:31:46;;;;;;;6.00;3.50;;;7.20;99.90;;;7.74;100.00;97577.44;5021855;28;20545;-76
2023/03/17 10:34:18;;;;;;;6.90;3.20;;;7.30;99.90;;;7.82;100.00;97570.34;5020602;28;20831;-76
2023/03/17 10:36:50;;;;;;;7.97;3.00;;;7.40;99.90;;;7.91;100.00;97568.44;5021084;28;20528;-76
2023/03/17 10:39:23;;;;;;;4.07;2.60;;;7.50;99.90;;;8.01;100.00;97564.56;5019090;28;20554;-76
2023/03/17 10:41:58;;;;;;;4.90;3.30;;;7.60;99.90;;;8.09;100.00;97561.03;5018543;28;20521;-77
2023/03/17 10:44:41;;;;;;;6.27;3.20;;;7.80;99.90;;;8.20;100.00;97564.97;5018411;28;20953;-76